Sewanee, TN (37375)

3:28 PM CDT on July 29, 2016 (GMT -0500)
Sky Castle - Sewanee | | Change Station

Elev 1854 ft 35.15 °N, 85.88 °W | Updated 25 seconds ago

Mostly Cloudy
Mostly Cloudy
81.8 °F
Feels Like 87 °F
N
2.0
Wind Variable Wind from WNW
Gusts 5.0 mph

Today
High -- | Low -- °F
--% Chance of Precip.
Yesterday
High -- | Low -- °F
Precip. -- in
Pressure 29.99 in
Visibility 10.0 miles
Clouds Few 3200 ft
Mostly Cloudy 3900 ft
Mostly Cloudy 4900 ft
Heat Index 87 °F
Dew Point 72 °F
Humidity 73%
Rainfall 0.17 in
Snow Depth Not available.
5:50 AM 7:48 PM
Waning Crescent, 19% visible
METAR KBGF 292015Z AUTO 24007KT 10SM FEW032 BKN039 BKN049 30/22 A2999 RMK
Pressure 29.99 in
Visibility 10.0 miles
Clouds Few 3200 ft
Mostly Cloudy 3900 ft
Mostly Cloudy 4900 ft
Heat Index 87 °F
Dew Point 72 °F
Humidity 73%
Rainfall 0.17 in
Snow Depth Not available.
5:50 AM 7:48 PM
Waning Crescent, 19% visible
METAR KBGF 292015Z AUTO 24007KT 10SM FEW032 BKN039 BKN049 30/22 A2999 RMK

10-Day Weather Forecast

Almanac

Astronomy

Jul. 29, 2016 Rise Set
Actual Time
Civil Twilight
Nautical Twilight
Astronomical Twilight
Moon
Length of Visible Light
Length of Day
Tomorrow will be .
, % of the Moon is Illuminated

Today's Extremes

State Highs State Lows

Community

WunderPhotos

Upload Photos

1,928,407 photos uploaded!

WunderBlog® & News

Nearby

Air Quality

  Air Quality AQ Index Pollutant
Not available.

Snow Depth

Station Depth Elevation

Earthquake Activity

City Distance Mag. Time & Date
Minimum magnitude displayed is 2.5.

Coastal Water Temperatures

Place Temperature

Stations

Nearby Weather Stations

Station Location Temp. Windchill Dew Point Humidity Wind Precip. Elev Updated Type
                   

Watches & Warnings

There are currently no watches in effect.